ADDS METAR Data INFO
IDs: Format: Raw Decoded Include TAF

Data at: 2310 UTC 16 Jan 2018

KUSE 162300Z AUTO 23006KT 10SM CLR M15/M17 A3045 RMK AO2
KUSE 162240Z AUTO 23006KT 10SM CLR M15/M17 A3045 RMK AO2
KUSE 162220Z AUTO 23007KT 9SM CLR M15/M17 A3044 RMK AO2
KUSE 162200Z AUTO 24008KT 10SM CLR M14/M17 A3044 RMK AO2
KUSE 162140Z AUTO 23008KT 10SM CLR M14/M17 A3043 RMK AO2
KUSE 162120Z AUTO 25010KT 10SM CLR M13/M17 A3043 RMK AO2
KUSE 162100Z AUTO 25009KT 10SM SCT045 SCT050 SCT080 M13/M17 A3042 RMK AO2
KUSE 162040Z AUTO 24010KT 10SM FEW046 SCT050 SCT080 M13/M17 A3042 RMK AO2
KUSE 162020Z AUTO 24011KT 10SM FEW048 SCT055 BKN070 M13/M17 A3041 RMK AO2
KUSE 162000Z AUTO 24011KT 9SM FEW034 BKN045 BKN070 M13/M17 A3041 RMK AO2
KUSE 161940Z AUTO 25011KT 9SM BKN045 BKN055 M13/M17 A3042 RMK AO2
KUSE 161920Z AUTO 24011KT 7SM FEW033 SCT049 M13/M17 A3042 RMK AO2
KUSE 161900Z AUTO 26011KT 5SM HZ FEW028 SCT034 M13/M17 A3042 RMK AO2
KUSE 161840Z AUTO 23012KT 2 1/2SM -SN SCT034 M13/M17 A3042 RMK AO2
KUSE 161820Z AUTO 24011KT 2 1/2SM -SN SCT032 SCT041 M14/M17 A3041 RMK AO2
KUSE 161800Z AUTO 23010KT 7SM FEW033 BKN042 BKN060 M14/M18 A3042 RMK AO2
KUSE 161740Z AUTO 23010KT 4SM -SN FEW033 SCT041 BKN060 M14/M18 A3042 RMK AO2
KUSE 161720Z AUTO 24012KT 10SM FEW027 FEW033 OVC041 M15/M18 A3043 RMK AO2
KUSE 161700Z AUTO 24011KT 9SM FEW027 BKN033 OVC055 M14/M18 A3043 RMK AO2
KUSE 161640Z AUTO 24012KT 7SM FEW021 BKN033 OVC055 M15/M18 A3044 RMK AO2
KUSE 161620Z AUTO 24011KT 4SM HZ FEW023 SCT029 BKN034 M15/M18 A3044 RMK AO2
KUSE 161600Z AUTO 24010KT 4SM HZ FEW023 SCT028 BKN047 M15/M18 A3044 RMK AO2
KUSE 161540Z AUTO 23012KT 3SM -SN SCT029 SCT047 M16/M18 A3044 RMK AO2
KUSE 161520Z AUTO 24012KT 4SM -SN FEW035 FEW050 M16/M18 A3044 RMK AO2
KUSE 161500Z AUTO 24010KT 4SM -SN BKN034 BKN050 M16/M18 A3044 RMK AO2
KUSE 161440Z AUTO 24012KT 2 1/2SM -SN BKN032 BKN037 BKN048 M16/M18 A3043 RMK AO2
KUSE 161420Z AUTO 24012KT 3SM -SN BKN031 BKN039 OVC047 M16/M18 A3042 RMK AO2
KUSE 161400Z AUTO 24012KT 4SM -SN FEW029 OVC045 M16/M18 A3042 RMK AO2
KUSE 161340Z AUTO 24013KT 4SM -SN FEW027 FEW032 OVC044 M16/M17 A3041 RMK AO2
KUSE 161320Z AUTO 24011KT 3SM -SN BKN027 BKN032 OVC041 M16/M17 A3041 RMK AO2
KUSE 161300Z AUTO 25013KT 4SM -SN OVC027 M16/M17 A3041 RMK AO2
KUSE 161240Z AUTO 24013KT 4SM -SN OVC026 M16/M17 A3040 RMK AO2
KUSE 161220Z AUTO 25016KT 4SM -SN BKN013 BKN024 OVC028 M15/M17 A3040 RMK AO2
KUSE 161200Z AUTO 24014KT 5SM -SN OVC013 M15/M16 A3040 RMK AO2
KUSE 161140Z AUTO 26013G18KT 6SM -SN OVC013 M15/M16 A3040 RMK AO2
KUSE 161120Z AUTO 26014KT 7SM -SN OVC012 M15/M16 A3039 RMK AO2
KUSE 161100Z AUTO 25014KT 9SM -SN OVC011 M14/M15 A3038 RMK AO2
KUSE 161040Z AUTO 25010KT 10SM OVC012 M14/M15 A3037 RMK AO2
KUSE 161020Z AUTO 24011KT 9SM SCT013 OVC024 M14/M15 A3037 RMK AO2
KUSE 161000Z AUTO 24011KT 7SM -SN OVC023 M13/M14 A3036 RMK AO2
KUSE 160940Z AUTO 25011KT 6SM -SN OVC023 M13/M14 A3036 RMK AO2
KUSE 160920Z AUTO 24012KT 6SM -SN FEW015 OVC022 M13/M14 A3035 RMK AO2
KUSE 160900Z AUTO 23010KT 6SM -SN FEW006 BKN014 OVC020 M12/M13 A3036 RMK AO2
KUSE 160840Z AUTO 24010KT 5SM -SN BKN005 BKN010 OVC014 M12/M13 A3035 RMK AO2
KUSE 160820Z AUTO 23009KT 7SM -SN OVC014 M12/M13 A3034 RMK AO2
KUSE 160800Z AUTO 23010KT 8SM -SN OVC013 M12/M13 A3033 RMK AO2
KUSE 160740Z AUTO 23009G16KT 9SM OVC013 M12/M13 A3033 RMK AO2
KUSE 160720Z AUTO 23009KT 9SM OVC013 M11/M12 A3032 RMK AO2
KUSE 160700Z AUTO 22010KT 6SM BR OVC014 M11/M12 A3031 RMK AO2
KUSE 160640Z AUTO 25010KT 9SM OVC014 M11/M11 A3031 RMK AO2
KUSE 160620Z AUTO 24010KT 8SM OVC014 M10/M11 A3031 RMK AO2
KUSE 160600Z AUTO 24011KT 7SM OVC014 M10/M11 A3031 RMK AO2
KUSE 160540Z AUTO 24012KT 7SM OVC013 M10/M11 A3031 RMK AO2
KUSE 160520Z AUTO 24011KT 7SM -SN OVC011 M10/M10 A3030 RMK AO2
KUSE 160500Z AUTO 25012G19KT 9SM OVC011 M10/M10 A3030 RMK AO2
KUSE 160440Z AUTO 24011KT 10SM OVC010 M10/M10 A3030 RMK AO2
KUSE 160420Z AUTO 23014KT 10SM SCT010 BKN036 OVC041 M09/M10 A3030 RMK AO2
KUSE 160400Z AUTO 24015KT 9SM FEW013 FEW033 OVC043 M07/M08 A3028 RMK AO2
KUSE 160340Z AUTO 24011KT 10SM FEW034 BKN044 OVC050 M06/M06 A3027 RMK AO2
KUSE 160320Z AUTO 23009G15KT 9SM FEW009 OVC050 M05/M05 A3027 RMK AO2
KUSE 160300Z AUTO 23012KT 8SM SCT010 OVC050 M05/M05 A3026 RMK AO2
KUSE 160240Z AUTO 22008KT 8SM BKN010 BKN014 OVC055 M05/M05 A3026 RMK AO2
KUSE 160220Z AUTO 21008KT 8SM FEW010 FEW014 OVC055 M05/M05 A3026 RMK AO2
KUSE 160200Z AUTO 21006KT 7SM SCT030 OVC055 M05/M05 A3026 RMK AO2
KUSE 160140Z AUTO 21007KT 6SM BR M05/M05 A3025 RMK AO2
KUSE 160120Z AUTO 22006KT 7SM FEW030 SCT036 OVC060 M05/M05 A3025 RMK AO2
KUSE 160100Z AUTO 21006KT 6SM BR FEW003 FEW046 OVC060 M06/M06 A3025 RMK AO2
KUSE 160040Z AUTO 21006KT 2 1/2SM -SN SCT003 SCT026 OVC060 M06/M06 A3024 RMK AO2
KUSE 160020Z AUTO 20005KT 6SM BR OVC060 M06/M06 A3023 RMK AO2
KUSE 160000Z AUTO 19005KT 6SM BR OVC060 M06/M05 A3024 RMK AO2
KUSE 152340Z AUTO 18006KT 6SM BR FEW047 OVC060 M06/M06 A3023 RMK AO2
KUSE 152320Z AUTO 18007KT 4SM -SN FEW007 SCT031 BKN045 M06/M05 A3023 RMK AO2
KUSE 152300Z AUTO 17007KT 4SM -SN SCT029 BKN055 OVC065 M06/M05 A3023 RMK AO2
KUSE 152240Z AUTO 17005KT 5SM BR FEW046 OVC060 M06/M06 A3022 RMK AO2
KUSE 152220Z AUTO 16006KT 4SM BR FEW021 SCT041 OVC060 M05/M05 A3021 RMK AO2
KUSE 152200Z AUTO 16005KT 4SM BR FEW023 SCT042 BKN055 M05/M05 A3021 RMK AO2
KUSE 152140Z AUTO 16005KT 4SM BR SCT021 BKN043 BKN060 M05/M05 A3021 RMK AO2
KUSE 152120Z AUTO 17005KT 3SM -SN BKN021 M05/M05 A3020 RMK AO2
KUSE 152100Z AUTO 16006KT 3SM -SN OVC021 M05/M05 A3019 RMK AO2
KUSE 152040Z AUTO 17006KT 3SM -SN OVC021 M05/M06 A3019 RMK AO2
KUSE 152020Z AUTO 15006KT 4SM BR OVC022 M06/M06 A3018 RMK AO2
KUSE 152000Z AUTO 15007KT 3SM -UP BKN023 OVC040 M06/M06 A3018 RMK AO2
KUSE 151940Z AUTO 16008KT 5SM BR FEW012 FEW023 OVC040 M06/M06 A3018 RMK AO2
KUSE 151920Z AUTO 15009KT 6SM BR SCT013 OVC041 M06/M06 A3018 RMK AO2
KUSE 151900Z AUTO 15010KT 6SM BR FEW014 FEW029 OVC041 M06/M07 A3019 RMK AO2
KUSE 151840Z AUTO 15010KT 3SM BR FEW031 BKN042 M06/M07 A3019 RMK AO2
KUSE 151820Z AUTO 15008KT 2 1/2SM -SN FEW016 FEW029 FEW035 M06/M07 A3020 RMK AO2
KUSE 151800Z AUTO 15010KT 2SM -SN SCT016 SCT027 SCT032 M06/M07 A3021 RMK AO2
KUSE 151740Z AUTO 14010KT 3SM BR FEW012 FEW018 SCT030 M06/M07 A3022 RMK AO2
KUSE 151720Z AUTO 15011KT 2SM -SN FEW030 FEW035 M07/M07 A3023 RMK AO2
KUSE 151700Z AUTO 15011KT 2 1/2SM BR CLR M07/M08 A3025 RMK AO2
KUSE 151640Z AUTO 13011KT 2SM -SN CLR M07/M08 A3025 RMK AO2
KUSE 151620Z AUTO 14012KT 1 1/2SM BR SCT017 M07/M08 A3026 RMK AO2
KUSE 151600Z AUTO 14010KT 1 1/2SM -SN CLR M07/M08 A3027 RMK AO2
KUSE 151540Z AUTO 13011KT 1 1/2SM BR CLR M08/M08 A3028 RMK AO2
KUSE 151520Z AUTO 13012KT 1 1/4SM -SN CLR M08/M08 A3028 RMK AO2
KUSE 151500Z AUTO 13010KT 1SM -SN CLR M08/M08 A3028 RMK AO2
KUSE 151440Z AUTO 13011KT 3SM BR CLR M08/M09 A3028 RMK AO2
KUSE 151420Z AUTO 13009KT 2SM BR CLR M08/M09 A3029 RMK AO2
KUSE 151400Z AUTO 13013KT 1SM -SN CLR M09/M09 A3029 RMK AO2
KUSE 151340Z AUTO 13013KT 1 1/4SM -SN BKN003 BKN025 M09/M09 A3029 RMK AO2
KUSE 151320Z AUTO 13011KT 1 1/4SM -SN BKN003 OVC025 M09/M09 A3029 RMK AO2
KUSE 151300Z AUTO 13012KT 2SM -SN SCT005 OVC026 M09/M09 A3030 RMK AO2
KUSE 151240Z AUTO 13011KT 4SM BR SCT005 OVC027 M09/M10 A3030 RMK AO2
KUSE 151220Z AUTO 12010KT 3SM -SN SCT006 OVC025 M10/M10 A3031 RMK AO2
KUSE 151200Z AUTO 13014KT 3SM -SN M10/M10 A3031 RMK AO2
KUSE 151140Z AUTO 13011KT 3SM -SN OVC005 M10/M10 A3031 RMK AO2
KUSE 151120Z AUTO 13011KT 3SM BR OVC005 M10/M10 A3031 RMK AO2